Time;durP1;ratioP1;P1;durP2;ratioP2;P2;SDS_P1;SDS_P2;PMS_P1;PMS_P2;Temp;Humidity;BMP_temperature;BMP_pressure;BME280_temperature;BME280_humidity;BME280_pressure;Samples;Min_cycle;Max_cycle;Signal;HPM_P1;HPM_P2
2024/01/26 00:00:05;;;;;;;5.40;2.53;;;5.70;99.90;5.00;101511.00;;;;4878205;28;116318;-70
2024/01/26 00:02:30;;;;;;;2.20;1.63;;;5.10;99.90;5.00;101508.00;;;;4877178;28;90141;-72
2024/01/26 00:04:56;;;;;;;3.60;1.90;;;6.00;99.90;5.00;101509.00;;;;4880891;28;109513;-71
2024/01/26 00:07:22;;;;;;;6.63;2.70;;;5.20;99.90;5.00;101511.00;;;;4878727;28;89369;-71
2024/01/26 00:09:48;;;;;;;8.70;2.10;;;5.20;99.90;5.10;101511.00;;;;4879757;28;88917;-71
2024/01/26 00:12:13;;;;;;;9.27;1.93;;;5.30;99.90;5.10;101514.00;;;;4874810;28;115769;-71
2024/01/26 00:14:39;;;;;;;2.10;1.63;;;5.50;99.90;5.10;101510.00;;;;4878682;28;110701;-71
2024/01/26 00:17:05;;;;;;;7.63;2.67;;;6.10;99.90;5.10;101515.00;;;;4875667;28;108821;-70
2024/01/26 00:19:30;;;;;;;4.77;2.50;;;5.40;99.90;5.00;101514.00;;;;4873924;28;112511;-71
2024/01/26 00:21:56;;;;;;;11.40;2.83;;;5.20;99.90;5.00;101506.00;;;;4876172;28;87998;-71
2024/01/26 00:24:22;;;;;;;8.97;1.90;;;5.70;99.90;5.00;101510.00;;;;4877366;28;100299;-71
2024/01/26 00:26:48;;;;;;;2.27;1.27;;;5.20;99.90;5.00;101505.00;;;;4875141;28;88940;-71
2024/01/26 00:29:13;;;;;;;6.73;2.60;;;5.20;99.90;5.00;101508.00;;;;4892249;28;117350;-71
2024/01/26 00:31:39;;;;;;;3.10;2.23;;;5.50;99.90;5.00;101513.00;;;;4887564;28;118377;-71
2024/01/26 00:34:04;;;;;;;3.27;2.10;;;5.20;99.90;5.00;101510.00;;;;4897407;28;110259;-71
2024/01/26 00:36:30;;;;;;;5.77;2.13;;;6.00;99.90;5.00;101517.00;;;;4896219;28;108303;-70
2024/01/26 00:38:56;;;;;;;3.60;1.93;;;5.90;99.90;5.00;101511.00;;;;4891285;28;117924;-71
2024/01/26 00:41:21;;;;;;;7.07;2.87;;;5.10;99.90;5.00;101506.00;;;;4897405;28;117236;-71
2024/01/26 00:43:47;;;;;;;4.57;2.40;;;5.20;99.90;5.00;101499.00;;;;4899044;28;109493;-71
2024/01/26 00:46:13;;;;;;;5.40;1.83;;;5.20;99.90;5.00;101507.00;;;;4897238;28;108881;-71
2024/01/26 00:48:39;;;;;;;6.67;2.37;;;5.10;99.90;5.00;101509.00;;;;4894217;28;91073;-71
2024/01/26 00:51:06;;;;;;;5.50;2.23;;;5.50;99.90;5.00;101507.00;;;;4899083;28;93580;-70
2024/01/26 00:53:32;;;;;;;3.67;2.53;;;5.50;99.90;5.00;101514.00;;;;4901686;28;87812;-71
2024/01/26 00:55:57;;;;;;;9.67;2.53;;;5.10;99.90;4.90;101505.00;;;;4901805;28;88019;-71
2024/01/26 00:58:23;;;;;;;3.50;2.27;;;5.10;99.90;4.90;101510.00;;;;4900947;28;120222;-71
2024/01/26 01:00:49;;;;;;;4.10;2.00;;;5.10;99.90;4.90;101513.00;;;;4901094;28;117840;-71
2024/01/26 01:03:14;;;;;;;7.90;2.83;;;5.10;99.90;4.90;101501.00;;;;4901737;28;110496;-71
2024/01/26 01:05:42;;;;;;;2.83;1.67;;;5.80;99.90;4.80;101496.00;;;;4900004;28;109082;-71
2024/01/26 01:08:08;;;;;;;2.73;2.03;;;5.10;99.90;4.90;101499.00;;;;4899127;28;88113;-71
2024/01/26 01:10:33;;;;;;;5.23;1.87;;;5.60;99.90;4.90;101503.00;;;;4901274;28;92275;-71
2024/01/26 01:12:59;;;;;;;6.73;1.73;;;5.00;99.90;4.90;101502.00;;;;4900099;28;87913;-71
2024/01/26 01:15:25;;;;;;;5.73;2.03;;;5.00;99.90;4.90;101505.00;;;;4917624;28;89176;-71
2024/01/26 01:17:51;;;;;;;2.60;1.67;;;6.00;99.90;4.90;101497.00;;;;4898724;28;107081;-70
2024/01/26 01:20:16;;;;;;;5.97;2.13;;;5.40;99.90;4.90;101494.00;;;;4896523;28;89243;-71
2024/01/26 01:22:43;;;;;;;3.53;1.90;;;5.50;99.90;4.90;101486.00;;;;4902557;28;109420;-72
2024/01/26 01:25:13;;;;;;;3.33;1.77;;;6.00;99.90;4.90;101488.00;;;;4901389;28;87944;-71
2024/01/26 01:27:39;;;;;;;1.83;1.37;;;5.50;99.90;4.90;101498.00;;;;4900154;28;88199;-71
2024/01/26 01:30:07;;;;;;;7.00;1.97;;;5.70;99.90;4.90;101494.00;;;;4902128;28;88044;-70
2024/01/26 01:32:34;;;;;;;9.53;3.50;;;5.10;99.90;4.90;101494.00;;;;4899621;28;91384;-71
2024/01/26 01:35:00;;;;;;;4.57;2.23;;;5.90;99.90;4.90;101492.00;;;;4900961;28;87971;-71
2024/01/26 01:37:26;;;;;;;6.40;2.30;;;5.10;99.90;4.90;101492.00;;;;4900627;28;105539;-71
2024/01/26 01:39:52;;;;;;;4.63;2.23;;;5.90;99.90;4.90;101488.00;;;;4898086;28;116720;-71
2024/01/26 01:42:17;;;;;;;4.43;1.83;;;5.20;99.90;4.90;101487.00;;;;4895987;28;107403;-70
2024/01/26 01:44:44;;;;;;;2.97;1.50;;;6.00;99.90;4.90;101486.00;;;;4897867;28;109521;-71
2024/01/26 01:47:11;;;;;;;7.07;2.00;;;5.80;99.90;4.80;101494.00;;;;4898473;28;89337;-71
2024/01/26 01:49:38;;;;;;;4.97;2.90;;;5.10;99.90;4.80;101482.00;;;;4900329;28;97413;-70
2024/01/26 01:52:07;;;;;;;7.10;1.97;;;5.00;99.90;4.70;101493.00;;;;4898130;28;87629;-70
2024/01/26 01:54:33;;;;;;;2.57;1.90;;;5.10;99.90;4.70;101483.00;;;;4900384;28;88462;-70
2024/01/26 01:57:02;;;;;;;6.67;2.70;;;5.90;99.90;4.60;101486.00;;;;4899400;28;106034;-70
2024/01/26 01:59:29;;;;;;;2.77;1.93;;;4.80;99.90;4.40;101483.00;;;;4895982;28;90319;-70
2024/01/26 02:01:55;;;;;;;2.73;1.90;;;4.70;99.90;4.30;101475.00;;;;4894365;28;102297;-70
2024/01/26 02:04:20;;;;;;;4.70;2.10;;;4.50;99.90;4.20;101470.00;;;;4896956;28;108676;-70
2024/01/26 02:06:58;;;;;;;4.77;2.60;;;4.40;99.90;4.10;101469.00;;;;4897081;28;117640;-70
2024/01/26 02:09:24;;;;;;;5.27;2.73;;;4.50;99.90;4.00;101455.00;;;;4896010;28;87819;-70
2024/01/26 02:11:51;;;;;;;5.27;2.10;;;4.30;99.90;3.80;101463.00;;;;4897138;28;88844;-70
2024/01/26 02:14:18;;;;;;;3.23;2.37;;;4.10;99.90;3.70;101453.00;;;;4899899;28;87833;-71
2024/01/26 02:16:57;;;;;;;8.13;2.20;;;4.60;99.90;3.60;101455.00;;;;4899719;28;94955;-70
2024/01/26 02:19:24;;;;;;;3.13;2.47;;;3.90;99.90;3.50;101458.00;;;;4910040;28;87980;-70
2024/01/26 02:21:50;;;;;;;5.20;2.37;;;4.50;99.90;3.40;101451.00;;;;4899966;28;87228;-70
2024/01/26 02:24:16;;;;;;;6.07;2.27;;;3.70;99.90;3.30;101445.00;;;;4898276;28;88018;-70
2024/01/26 02:26:42;;;;;;;4.00;2.00;;;3.70;99.90;3.20;101438.00;;;;4897093;28;88416;-70
2024/01/26 02:29:08;;;;;;;4.03;2.07;;;3.50;99.90;3.10;101436.00;;;;4897472;28;89067;-70
2024/01/26 02:31:34;;;;;;;6.23;2.17;;;3.40;99.90;3.00;101434.00;;;;4897462;28;100712;-71
2024/01/26 02:33:59;;;;;;;2.97;2.00;;;3.30;99.90;2.90;101431.00;;;;4898841;28;87689;-70
2024/01/26 02:36:31;;;;;;;3.47;2.47;;;3.90;99.90;2.90;101436.00;;;;4896667;28;117955;-70
2024/01/26 02:38:57;;;;;;;2.40;2.20;;;3.10;99.90;2.80;101421.00;;;;4895785;28;88143;-70
2024/01/26 02:41:23;;;;;;;3.93;2.30;;;3.20;99.90;2.70;101438.00;;;;4897487;28;109439;-71
2024/01/26 02:43:49;;;;;;;7.57;2.63;;;3.00;99.90;2.70;101427.00;;;;4910516;28;88054;-71
2024/01/26 02:46:15;;;;;;;4.63;2.67;;;3.00;99.90;2.60;101433.00;;;;4897182;28;87418;-70
2024/01/26 02:48:40;;;;;;;5.80;3.07;;;3.50;99.90;2.50;101431.00;;;;4896081;28;117504;-70
2024/01/26 02:51:06;;;;;;;5.57;2.37;;;3.00;99.90;2.40;101435.00;;;;4894395;28;109179;-70
2024/01/26 02:53:41;;;;;;;6.07;2.53;;;2.70;99.90;2.40;101436.00;;;;4900213;28;89553;-70
2024/01/26 02:56:07;;;;;;;9.50;2.73;;;2.70;99.90;2.30;101424.00;;;;4894945;28;89518;-70
2024/01/26 02:58:34;;;;;;;3.00;2.67;;;2.60;99.90;2.20;101411.00;;;;4901339;28;88292;-70
2024/01/26 03:01:01;;;;;;;5.00;2.67;;;2.60;99.90;2.10;101412.00;;;;4897361;28;87700;-70
2024/01/26 03:03:26;;;;;;;2.23;2.03;;;2.50;99.90;2.10;101409.00;;;;4900046;28;87885;-70
2024/01/26 03:05:52;;;;;;;4.40;2.83;;;2.50;99.90;2.00;101412.00;;;;4895112;28;108970;-70
2024/01/26 03:08:17;;;;;;;5.50;2.90;;;2.40;99.90;2.00;101406.00;;;;4899360;28;116678;-70
2024/01/26 03:10:43;;;;;;;3.33;2.23;;;2.20;99.90;1.90;101393.00;;;;4900643;28;111668;-70
2024/01/26 03:13:09;;;;;;;3.63;2.40;;;2.20;99.90;1.70;101388.00;;;;4895277;28;107125;-70
2024/01/26 03:15:35;;;;;;;5.47;2.13;;;2.10;99.90;1.70;101384.00;;;;4897823;28;117931;-70
2024/01/26 03:18:00;;;;;;;3.87;2.23;;;2.00;99.90;1.60;101389.00;;;;4893042;28;117282;-70
2024/01/26 03:20:26;;;;;;;3.20;2.10;;;1.90;99.90;1.60;101394.00;;;;4897705;28;88366;-70
2024/01/26 03:22:52;;;;;;;5.90;2.00;;;1.90;99.90;1.50;101389.00;;;;4902606;28;90243;-70
2024/01/26 03:25:18;;;;;;;6.03;2.73;;;1.90;99.90;1.50;101391.00;;;;4895730;28;116694;-70
2024/01/26 03:27:43;;;;;;;4.07;2.67;;;1.90;99.90;1.50;101393.00;;;;4895858;28;87826;-71
2024/01/26 03:30:10;;;;;;;2.27;1.73;;;1.90;99.90;1.40;101396.00;;;;4907857;28;108810;-71
2024/01/26 03:32:35;;;;;;;7.97;2.83;;;1.70;99.90;1.40;101386.00;;;;4897921;28;101387;-71
2024/01/26 03:35:01;;;;;;;4.50;2.23;;;1.70;99.90;1.30;101390.00;;;;4896502;28;87533;-72
2024/01/26 03:37:28;;;;;;;3.23;2.20;;;1.70;99.90;1.30;101386.00;;;;4888426;28;117190;-70
2024/01/26 03:39:53;;;;;;;3.43;2.20;;;1.60;99.90;1.20;101396.00;;;;4897094;28;108481;-71
2024/01/26 03:42:22;;;;;;;7.30;3.43;;;1.60;99.90;1.20;101376.00;;;;4908030;28;108300;-71
2024/01/26 03:44:48;;;;;;;3.30;2.40;;;1.60;99.90;1.10;101389.00;;;;4894937;28;115475;-70
2024/01/26 03:47:13;;;;;;;7.97;3.07;;;1.50;99.90;1.10;101389.00;;;;4897017;28;116472;-70
2024/01/26 03:49:44;;;;;;;5.07;2.20;;;1.40;99.90;1.10;101385.00;;;;4902361;28;112208;-71
2024/01/26 03:52:13;;;;;;;4.97;3.17;;;1.40;99.90;1.10;101385.00;;;;4895493;28;88053;-71
2024/01/26 03:54:39;;;;;;;3.40;1.97;;;1.40;99.90;1.10;101375.00;;;;4895047;28;103372;-71
2024/01/26 03:57:05;;;;;;;6.90;3.13;;;1.50;99.90;1.10;101387.00;;;;4895745;28;87869;-70
2024/01/26 03:59:31;;;;;;;7.23;2.93;;;1.50;99.90;1.20;101390.00;;;;4896545;28;87142;-70
2024/01/26 04:01:57;;;;;;;4.67;2.80;;;1.50;99.90;1.20;101383.00;;;;4897289;28;95935;-70
2024/01/26 04:04:23;;;;;;;4.90;3.00;;;1.70;99.90;1.30;101384.00;;;;4894865;28;117813;-72
2024/01/26 04:06:49;;;;;;;5.27;2.77;;;1.50;99.90;1.40;101395.00;;;;4897402;28;88940;-70
2024/01/26 04:09:14;;;;;;;4.33;2.63;;;2.10;99.90;1.40;101387.00;;;;4897020;28;110449;-70
2024/01/26 04:11:40;;;;;;;2.87;2.07;;;1.60;99.90;1.50;101386.00;;;;4897531;28;108225;-70
2024/01/26 04:14:06;;;;;;;8.20;2.37;;;1.80;99.90;1.60;101382.00;;;;4897659;28;117739;-70
2024/01/26 04:16:31;;;;;;;7.80;2.57;;;1.90;99.90;1.60;101382.00;;;;4904866;28;88513;-70
2024/01/26 04:18:57;;;;;;;5.40;2.77;;;2.00;99.90;1.70;101377.00;;;;4901253;28;111092;-70
2024/01/26 04:21:23;;;;;;;4.23;3.13;;;2.00;99.90;1.70;101361.00;;;;4900773;28;87839;-71
2024/01/26 04:23:48;;;;;;;4.97;2.43;;;2.10;99.90;1.80;101374.00;;;;4910869;28;115946;-70
2024/01/26 04:26:15;;;;;;;3.93;2.90;;;2.10;99.90;1.80;101369.00;;;;4901301;28;114867;-70
2024/01/26 04:28:41;;;;;;;5.97;3.10;;;2.00;99.90;1.80;101373.00;;;;4900919;28;87965;-70
2024/01/26 04:31:06;;;;;;;11.93;3.27;;;3.10;99.90;1.90;101367.00;;;;4896216;28;97664;-70
2024/01/26 04:33:32;;;;;;;5.40;2.93;;;2.10;99.90;2.00;101367.00;;;;4900758;28;117056;-70
2024/01/26 04:35:58;;;;;;;5.20;2.60;;;2.30;99.90;2.00;101355.00;;;;4898232;28;90433;-70
2024/01/26 04:38:23;;;;;;;4.07;2.43;;;2.30;99.90;2.10;101347.00;;;;4901579;28;109660;-72
2024/01/26 04:40:49;;;;;;;5.97;2.77;;;2.30;99.90;2.10;101349.00;;;;4902709;28;107778;-72
2024/01/26 04:43:14;;;;;;;8.30;2.30;;;2.40;99.90;2.20;101344.00;;;;4900620;28;116834;-72
2024/01/26 04:45:40;;;;;;;5.80;3.27;;;2.40;99.90;2.20;101344.00;;;;4899844;28;97428;-71
2024/01/26 04:48:07;;;;;;;3.43;2.87;;;2.40;99.90;2.30;101337.00;;;;4901037;28;87239;-71
2024/01/26 04:50:33;;;;;;;5.37;3.07;;;2.50;99.90;2.30;101340.00;;;;4899508;28;99234;-71
2024/01/26 04:53:00;;;;;;;8.43;3.30;;;3.00;99.90;2.30;101344.00;;;;4900372;28;117992;-71
2024/01/26 04:55:26;;;;;;;5.93;2.43;;;2.50;99.90;2.30;101333.00;;;;4898909;28;109618;-71
2024/01/26 04:57:52;;;;;;;7.23;3.50;;;2.60;99.90;2.30;101340.00;;;;4898777;28;87812;-71
2024/01/26 05:00:18;;;;;;;12.70;3.73;;;2.60;99.90;2.40;101349.00;;;;4898401;28;109007;-71
2024/01/26 05:02:43;;;;;;;3.03;2.73;;;2.60;99.90;2.40;101340.00;;;;4898907;28;88776;-71
2024/01/26 05:05:14;;;;;;;6.57;2.20;;;2.60;99.90;2.40;101339.00;;;;4896592;28;116894;-71
2024/01/26 05:07:40;;;;;;;3.77;2.77;;;2.60;99.90;2.40;101348.00;;;;4900143;28;87850;-70
2024/01/26 05:10:07;;;;;;;6.37;4.10;;;2.60;99.90;2.40;101341.00;;;;4897645;28;87831;-70
2024/01/26 05:12:33;;;;;;;11.07;6.97;;;2.70;99.90;2.50;101329.00;;;;4899145;28;101165;-70
2024/01/26 05:14:59;;;;;;;11.87;7.00;;;2.80;99.90;2.50;101333.00;;;;4895264;28;97823;-71
2024/01/26 05:17:25;;;;;;;7.33;4.53;;;2.80;99.90;2.50;101320.00;;;;4900225;28;89454;-71
2024/01/26 05:19:51;;;;;;;4.23;2.33;;;2.80;99.90;2.50;101319.00;;;;4909270;28;109570;-70
2024/01/26 05:22:17;;;;;;;3.13;2.83;;;2.80;99.90;2.50;101316.00;;;;4900872;28;108820;-70
2024/01/26 05:24:43;;;;;;;12.17;3.37;;;2.80;99.90;2.50;101320.00;;;;4901082;28;88574;-70
2024/01/26 05:27:09;;;;;;;3.27;2.77;;;2.80;99.90;2.50;101306.00;;;;4899773;28;110047;-70
2024/01/26 05:29:35;;;;;;;8.07;3.07;;;2.80;99.90;2.50;101310.00;;;;4898393;28;109567;-70
2024/01/26 05:32:01;;;;;;;14.47;3.23;;;2.80;99.90;2.50;101303.00;;;;4910507;28;88208;-70
2024/01/26 05:34:27;;;;;;;3.90;3.43;;;2.80;99.90;2.50;101316.00;;;;4896305;28;104993;-70
2024/01/26 05:36:53;;;;;;;5.57;3.40;;;2.90;99.90;2.50;101320.00;;;;4895792;28;87437;-70
2024/01/26 05:39:19;;;;;;;6.60;4.00;;;2.80;99.90;2.50;101310.00;;;;4902866;28;108406;-70
2024/01/26 05:41:45;;;;;;;4.67;3.30;;;2.80;99.90;2.50;101311.00;;;;4899466;28;117649;-70
2024/01/26 05:44:11;;;;;;;7.70;3.60;;;2.70;99.90;2.50;101288.00;;;;4897207;28;89186;-70
2024/01/26 05:46:36;;;;;;;7.97;3.50;;;2.80;99.90;2.50;101297.00;;;;4903714;28;110768;-70
2024/01/26 05:49:02;;;;;;;7.87;3.30;;;2.70;99.90;2.50;101300.00;;;;4889934;28;98080;-70
2024/01/26 05:51:28;;;;;;;4.67;2.60;;;2.80;99.90;2.50;101291.00;;;;4896376;28;88801;-70
2024/01/26 05:53:54;;;;;;;2.83;2.23;;;2.90;99.90;2.50;101291.00;;;;4896688;28;116203;-70
2024/01/26 05:56:21;;;;;;;9.17;2.80;;;2.80;99.90;2.50;101300.00;;;;4900548;28;87684;-70
2024/01/26 05:58:47;;;;;;;11.63;3.93;;;2.70;99.90;2.50;101297.00;;;;4911317;28;87873;-70
2024/01/26 06:01:13;;;;;;;5.03;2.90;;;2.80;99.90;2.50;101288.00;;;;4894793;28;87994;-69
2024/01/26 06:03:38;;;;;;;6.57;3.07;;;2.80;99.90;2.50;101292.00;;;;4896832;28;117028;-70
2024/01/26 06:06:04;;;;;;;4.40;2.40;;;2.70;99.90;2.50;101288.00;;;;4893120;28;108931;-70
2024/01/26 06:08:30;;;;;;;4.73;3.27;;;2.70;99.90;2.50;101284.00;;;;4898159;28;109470;-70
2024/01/26 06:10:56;;;;;;;8.07;2.97;;;2.70;99.90;2.50;101277.00;;;;4895964;28;118274;-70
2024/01/26 06:13:23;;;;;;;6.30;3.00;;;2.70;99.90;2.50;101272.00;;;;4899864;28;88289;-70
2024/01/26 06:15:50;;;;;;;4.03;3.00;;;2.70;99.90;2.50;101281.00;;;;4895474;28;87924;-70
2024/01/26 06:18:16;;;;;;;10.70;3.23;;;2.80;99.90;2.50;101266.00;;;;4894965;28;88265;-70
2024/01/26 06:20:42;;;;;;;3.87;2.17;;;2.70;99.90;2.50;101276.00;;;;4894837;28;88092;-70
2024/01/26 06:23:08;;;;;;;6.17;3.23;;;2.80;99.90;2.50;101272.00;;;;4893687;28;106246;-71
2024/01/26 06:25:34;;;;;;;3.50;2.73;;;2.70;99.90;2.50;101262.00;;;;4905364;28;100937;-70
2024/01/26 06:27:59;;;;;;;3.10;2.47;;;2.90;99.90;2.50;101274.00;;;;4889560;28;108784;-70
2024/01/26 06:30:25;;;;;;;5.90;3.20;;;2.80;99.90;2.60;101273.00;;;;4890684;28;116866;-70
2024/01/26 06:32:51;;;;;;;5.43;2.57;;;2.80;99.90;2.60;101267.00;;;;4893221;28;90358;-70
2024/01/26 06:35:17;;;;;;;3.50;2.50;;;2.80;99.90;2.60;101262.00;;;;4893505;28;88896;-70
2024/01/26 06:37:43;;;;;;;5.27;3.23;;;2.90;99.90;2.70;101262.00;;;;4906712;28;87975;-70
2024/01/26 06:40:13;;;;;;;6.07;3.30;;;3.70;99.90;2.70;101248.00;;;;4889497;28;104671;-71
2024/01/26 06:42:39;;;;;;;9.03;2.90;;;3.00;99.90;2.70;101251.00;;;;4907455;28;88008;-70
2024/01/26 06:45:09;;;;;;;11.17;3.30;;;2.90;99.90;2.80;101239.00;;;;4893537;28;87765;-70
2024/01/26 06:47:34;;;;;;;7.33;2.97;;;3.90;99.90;2.80;101251.00;;;;4891288;28;87881;-71
2024/01/26 06:50:00;;;;;;;4.37;3.93;;;3.10;99.90;2.80;101239.00;;;;4895013;28;114019;-70
2024/01/26 06:52:26;;;;;;;6.97;3.50;;;2.90;99.90;2.90;101256.00;;;;4896140;28;88089;-71
2024/01/26 06:54:52;;;;;;;5.90;2.90;;;3.10;99.90;3.00;101237.00;;;;4894441;28;111146;-71
2024/01/26 06:57:18;;;;;;;8.87;3.50;;;3.10;99.90;3.00;101243.00;;;;4892126;28;108837;-71
2024/01/26 06:59:43;;;;;;;7.57;3.93;;;3.20;99.90;3.10;101235.00;;;;4908379;28;116838;-71
2024/01/26 07:02:09;;;;;;;5.77;2.80;;;3.30;99.90;3.20;101234.00;;;;4893365;28;117263;-70
2024/01/26 07:04:35;;;;;;;7.33;4.10;;;2.70;99.90;3.30;101235.00;;;;4894418;28;89357;-70
2024/01/26 07:07:01;;;;;;;13.07;3.37;;;3.40;99.90;3.30;101228.00;;;;4893883;28;108066;-71
2024/01/26 07:09:26;;;;;;;7.80;3.63;;;3.60;99.90;3.40;101238.00;;;;4895969;28;118099;-71
2024/01/26 07:11:52;;;;;;;4.60;2.73;;;3.70;99.90;3.50;101223.00;;;;4892234;28;116724;-70
2024/01/26 07:14:19;;;;;;;11.33;3.83;;;3.70;99.90;3.60;101234.00;;;;4895934;28;109719;-70
2024/01/26 07:16:46;;;;;;;11.13;3.67;;;3.80;99.90;3.60;101230.00;;;;4913235;28;88154;-71
2024/01/26 07:19:12;;;;;;;5.07;3.03;;;3.70;99.90;3.70;101219.00;;;;4889616;28;105327;-70
2024/01/26 07:21:37;;;;;;;4.20;2.93;;;4.00;99.90;3.70;101223.00;;;;4893424;28;116797;-71
2024/01/26 07:24:03;;;;;;;4.83;2.63;;;4.50;99.90;3.80;101221.00;;;;4893202;28;110440;-70
2024/01/26 07:26:29;;;;;;;7.30;3.43;;;4.10;99.90;3.90;101214.00;;;;4891755;28;95815;-70
2024/01/26 07:28:55;;;;;;;5.33;2.80;;;4.70;99.90;4.00;101213.00;;;;4891216;28;117814;-71
2024/01/26 07:31:20;;;;;;;5.30;2.53;;;4.20;99.90;4.10;101215.00;;;;4894218;28;88782;-71
2024/01/26 07:33:46;;;;;;;2.83;2.13;;;4.30;99.90;4.20;101213.00;;;;4892424;28;109732;-70
2024/01/26 07:36:12;;;;;;;3.53;1.93;;;4.30;99.90;4.30;101208.00;;;;4893694;28;87905;-70
2024/01/26 07:38:38;;;;;;;2.87;2.00;;;4.50;99.90;4.40;101214.00;;;;4892328;28;115625;-71
2024/01/26 07:41:03;;;;;;;3.27;2.50;;;4.50;99.90;4.50;101213.00;;;;4902930;28;116207;-71
2024/01/26 07:43:29;;;;;;;4.80;2.97;;;4.60;99.90;4.60;101209.00;;;;4893551;28;109827;-71
2024/01/26 07:45:55;;;;;;;4.87;2.10;;;5.30;99.90;4.70;101210.00;;;;4894924;28;106443;-70
2024/01/26 07:48:20;;;;;;;4.60;2.87;;;4.90;99.90;4.80;101206.00;;;;4894265;28;116683;-70
2024/01/26 07:50:46;;;;;;;4.03;2.53;;;4.80;99.90;4.90;101201.00;;;;4895307;28;95118;-71
2024/01/26 07:53:12;;;;;;;5.23;2.80;;;5.60;99.90;4.90;101188.00;;;;4893342;28;87988;-70
2024/01/26 07:55:38;;;;;;;5.10;2.47;;;5.50;99.90;5.00;101183.00;;;;4895008;28;88113;-70
2024/01/26 07:58:04;;;;;;;3.67;2.50;;;6.00;99.90;5.10;101170.00;;;;4891898;28;118294;-71
2024/01/26 08:00:30;;;;;;;4.23;2.40;;;5.60;99.90;5.20;101175.00;;;;4893683;28;117482;-71
2024/01/26 08:02:55;;;;;;;10.53;2.13;;;5.20;99.90;5.30;101182.00;;;;4893391;28;109847;-71
2024/01/26 08:05:21;;;;;;;3.87;2.07;;;6.40;99.90;5.30;101170.00;;;;4894274;28;109773;-71
2024/01/26 08:07:47;;;;;;;1.90;1.80;;;5.50;99.90;5.40;101170.00;;;;4891177;28;117000;-71
2024/01/26 08:10:13;;;;;;;6.50;1.97;;;5.60;99.90;5.50;101180.00;;;;4891183;28;116055;-70
2024/01/26 08:12:40;;;;;;;6.27;2.40;;;6.10;99.90;5.60;101180.00;;;;4894006;28;88454;-70
2024/01/26 08:15:06;;;;;;;1.80;1.30;;;5.70;99.90;5.70;101173.00;;;;4890819;28;87769;-71
2024/01/26 08:17:33;;;;;;;3.73;2.67;;;5.80;99.90;5.70;101164.00;;;;4892993;28;94374;-71
2024/01/26 08:19:58;;;;;;;7.97;2.43;;;6.00;99.90;5.80;101156.00;;;;4904808;28;88826;-71
2024/01/26 08:22:25;;;;;;;7.77;2.60;;;5.90;99.90;5.90;101161.00;;;;4894146;28;88277;-70
2024/01/26 08:24:51;;;;;;;10.20;2.97;;;6.00;99.90;5.90;101151.00;;;;4890696;28;87949;-71
2024/01/26 08:27:17;;;;;;;6.67;2.57;;;6.80;99.90;6.10;101147.00;;;;4891954;28;116250;-72
2024/01/26 08:29:43;;;;;;;3.53;2.50;;;6.50;99.90;6.20;101131.00;;;;4906575;28;93529;-71
2024/01/26 08:32:09;;;;;;;3.47;1.83;;;6.50;99.90;6.30;101135.00;;;;4890757;28;111372;-71
2024/01/26 08:34:36;;;;;;;5.30;2.20;;;6.50;99.90;6.40;101127.00;;;;4894224;28;110093;-71
2024/01/26 08:37:03;;;;;;;5.03;2.27;;;6.70;99.90;6.40;101123.00;;;;4895087;28;88910;-70
2024/01/26 08:39:29;;;;;;;3.37;2.03;;;6.50;99.90;6.50;101129.00;;;;4894216;28;88146;-69
2024/01/26 08:41:56;;;;;;;7.87;2.33;;;6.70;99.90;6.60;101127.00;;;;4888722;28;87823;-69
2024/01/26 08:44:22;;;;;;;3.40;2.00;;;7.20;99.90;6.60;101129.00;;;;4888970;28;87888;-70
2024/01/26 08:46:48;;;;;;;2.93;2.00;;;6.90;99.90;6.70;101133.00;;;;4887070;28;108702;-69
2024/01/26 08:49:14;;;;;;;8.90;2.70;;;6.90;99.90;6.70;101122.00;;;;4891696;28;103832;-69
2024/01/26 08:51:40;;;;;;;2.47;1.37;;;6.90;99.90;6.80;101118.00;;;;4889165;28;101157;-69
2024/01/26 08:54:07;;;;;;;4.57;1.73;;;6.90;99.90;6.90;101126.00;;;;4890286;28;87870;-69
2024/01/26 08:56:39;;;;;;;6.30;1.93;;;7.00;99.90;6.90;101114.00;;;;4891040;28;88912;-69
2024/01/26 08:59:06;;;;;;;4.10;1.57;;;7.00;99.90;7.00;101118.00;;;;4905663;28;88946;-72
2024/01/26 09:01:34;;;;;;;3.30;1.87;;;7.10;99.90;7.00;101124.00;;;;4893603;28;87873;-71
2024/01/26 09:04:00;;;;;;;5.30;1.87;;;7.10;99.90;7.10;101127.00;;;;4894164;28;88045;-71
2024/01/26 09:06:26;;;;;;;3.70;1.83;;;7.30;99.90;7.20;101124.00;;;;4893173;28;89408;-71
2024/01/26 09:08:52;;;;;;;2.10;1.43;;;7.40;99.90;7.30;101124.00;;;;4890713;28;116819;-69
2024/01/26 09:11:17;;;;;;;9.37;2.23;;;7.40;99.90;7.30;101131.00;;;;4891757;28;87975;-72
2024/01/26 09:13:43;;;;;;;2.33;1.90;;;7.50;99.90;7.30;101128.00;;;;4892517;28;110167;-72
2024/01/26 09:16:12;;;;;;;3.57;1.73;;;7.40;99.90;7.30;101119.00;;;;4893249;28;111347;-69
2024/01/26 09:18:39;;;;;;;3.57;1.90;;;8.30;99.90;7.20;101113.00;;;;4894690;28;88074;-73
2024/01/26 09:21:05;;;;;;;8.63;1.70;;;7.70;99.90;7.20;101108.00;;;;4908553;28;87870;-69
2024/01/26 09:23:31;;;;;;;5.40;1.93;;;7.30;99.90;7.20;101106.00;;;;4895749;28;89021;-70
2024/01/26 09:25:58;;;;;;;2.47;2.07;;;7.40;99.90;7.20;101078.00;;;;4896664;28;106365;-72
2024/01/26 09:28:24;;;;;;;2.43;2.23;;;7.30;99.90;7.10;101076.00;;;;4898764;28;88560;-72
2024/01/26 09:30:49;;;;;;;1.57;1.33;;;7.20;99.90;7.20;101070.00;;;;4895283;28;102596;-70
2024/01/26 09:33:15;;;;;;;5.40;2.20;;;7.30;99.90;7.20;101052.00;;;;4894872;28;107756;-73
2024/01/26 09:35:41;;;;;;;4.60;2.30;;;7.50;99.90;7.20;101050.00;;;;4909962;28;88029;-73
2024/01/26 09:38:06;;;;;;;4.77;2.10;;;7.30;99.90;7.20;101047.00;;;;4895451;28;116178;-70
2024/01/26 09:40:32;;;;;;;2.90;1.90;;;7.30;99.90;7.30;101051.00;;;;4898884;28;97427;-69
2024/01/26 09:42:58;;;;;;;4.70;1.37;;;7.50;99.90;7.30;101056.00;;;;4899122;28;93967;-69
2024/01/26 09:45:24;;;;;;;3.03;1.70;;;7.50;99.90;7.30;101051.00;;;;4893889;28;117914;-71
2024/01/26 09:47:54;;;;;;;2.73;1.73;;;7.60;99.90;7.40;101049.00;;;;4893890;28;114578;-68
2024/01/26 09:50:23;;;;;;;5.50;1.90;;;7.60;99.90;7.40;101044.00;;;;4898312;28;88262;-70
2024/01/26 09:52:52;;;;;;;1.60;1.43;;;7.50;99.90;7.50;101031.00;;;;4893068;28;88311;-70
2024/01/26 09:55:20;;;;;;;3.37;1.70;;;7.60;99.90;7.50;101030.00;;;;4898583;28;88624;-69
2024/01/26 09:57:47;;;;;;;2.60;1.70;;;7.60;99.90;7.50;101028.00;;;;4896262;28;88320;-70
2024/01/26 10:00:14;;;;;;;3.70;2.17;;;7.70;99.90;7.60;101009.00;;;;4894033;28;89377;-70
2024/01/26 10:02:42;;;;;;;1.83;1.43;;;7.80;99.90;7.70;101016.00;;;;4895957;28;87911;-70
2024/01/26 10:05:08;;;;;;;2.50;1.90;;;7.70;99.90;7.70;101006.00;;;;4893638;28;87558;-69
2024/01/26 10:07:34;;;;;;;5.30;1.50;;;7.80;99.90;7.80;100994.00;;;;4892215;28;116943;-72
2024/01/26 10:10:00;;;;;;;1.83;1.10;;;8.60;99.90;7.90;100985.00;;;;4893490;28;110750;-73
2024/01/26 10:12:25;;;;;;;1.87;1.53;;;7.90;99.90;7.90;100968.00;;;;4894549;28;104280;-71
2024/01/26 10:15:09;;;;;;;5.77;1.50;;;8.10;99.90;8.00;100965.00;;;;4893983;28;117973;-71
2024/01/26 10:17:35;;;;;;;2.50;1.10;;;8.00;99.90;8.00;100960.00;;;;4888256;28;90362;-73
2024/01/26 10:20:14;;;;;;;1.70;1.27;;;8.30;99.90;8.00;100961.00;;;;4896787;28;89162;-71
2024/01/26 10:22:44;;;;;;;1.93;1.50;;;8.20;99.90;8.10;100959.00;;;;4892591;28;88047;-72
2024/01/26 10:25:11;;;;;;;3.43;1.33;;;8.20;99.90;8.20;100961.00;;;;4909315;28;98794;-71
2024/01/26 10:27:36;;;;;;;1.40;1.13;;;8.20;99.90;8.20;100953.00;;;;4892923;28;87998;-72
2024/01/26 10:30:04;;;;;;;1.70;1.43;;;8.30;99.90;8.30;100943.00;;;;4909508;28;109597;-71
2024/01/26 10:32:31;;;;;;;4.10;1.83;;;8.30;99.90;8.40;100928.00;;;;4892553;28;87732;-71
2024/01/26 10:35:00;;;;;;;3.33;1.40;;;8.40;99.90;8.50;100913.00;;;;4894506;28;87490;-71
2024/01/26 10:37:34;;;;;;;2.57;1.50;;;8.60;99.90;8.70;100915.00;;;;4894264;28;88907;-71
2024/01/26 10:40:04;;;;;;;1.80;0.73;;;8.70;99.90;8.80;100921.00;;;;4896341;28;88214;-72
2024/01/26 10:42:30;;;;;;;2.07;1.50;;;8.80;99.90;8.90;100918.00;;;;4894526;28;87980;-70
2024/01/26 10:45:00;;;;;;;2.33;1.30;;;8.90;99.90;8.90;100916.00;;;;4891848;28;88166;-70
2024/01/26 10:47:26;;;;;;;1.27;0.97;;;9.00;99.90;9.00;100898.00;;;;4899246;28;87896;-71
2024/01/26 10:49:57;;;;;;;2.13;1.33;;;9.00;99.90;9.00;100894.00;;;;4895226;28;88209;-69
2024/01/26 10:52:23;;;;;;;3.07;1.40;;;9.10;99.90;9.10;100892.00;;;;4897047;28;87576;-69